Time;durP1;ratioP1;P1;durP2;ratioP2;P2;SDS_P1;SDS_P2;PMS_P1;PMS_P2;Temp;Humidity;BMP_temperature;BMP_pressure;BME280_temperature;BME280_humidity;BME280_pressure;Samples;Min_cycle;Max_cycle;Signal;HPM_P1;HPM_P2
2023/05/31 00:00:50;;;;;;;5.25;4.43;;;17.00;89.40;;;;;;5013695;28;20967;-68
2023/05/31 00:03:17;;;;;;;4.97;3.75;;;16.90;90.00;;;;;;5010923;28;20186;-69
2023/05/31 00:05:43;;;;;;;7.45;3.80;;;16.90;90.10;;;;;;5012961;28;20225;-69
2023/05/31 00:08:11;;;;;;;4.93;3.63;;;16.90;90.00;;;;;;5012474;28;20535;-66
2023/05/31 00:10:36;;;;;;;6.97;3.47;;;16.80;90.00;;;;;;5012213;28;20187;-66
2023/05/31 00:13:04;;;;;;;5.35;3.95;;;16.80;90.20;;;;;;5011590;28;20578;-66
2023/05/31 00:15:29;;;;;;;5.75;3.47;;;16.70;90.20;;;;;;5012688;28;20257;-66
2023/05/31 00:17:55;;;;;;;4.88;3.83;;;16.70;90.30;;;;;;5011538;28;20317;-66
2023/05/31 00:20:23;;;;;;;6.68;4.75;;;16.70;90.50;;;;;;5012815;28;20175;-66
2023/05/31 00:22:49;;;;;;;8.60;6.38;;;16.70;90.90;;;;;;5013114;28;20183;-66
2023/05/31 00:25:15;;;;;;;13.02;10.10;;;16.60;90.80;;;;;;5012726;28;20198;-66
2023/05/31 00:27:42;;;;;;;11.02;9.25;;;16.60;91.00;;;;;;5013151;28;20191;-67
2023/05/31 00:30:11;;;;;;;10.85;7.40;;;16.50;91.40;;;;;;5013152;28;20179;-67
2023/05/31 00:32:37;;;;;;;6.80;5.80;;;16.50;91.30;;;;;;5011225;28;20198;-67
2023/05/31 00:35:05;;;;;;;7.03;5.25;;;16.40;91.50;;;;;;5013463;28;20203;-68
2023/05/31 00:37:36;;;;;;;5.82;4.80;;;16.30;92.10;;;;;;5016929;28;20183;-68
2023/05/31 00:40:07;;;;;;;7.60;4.75;;;16.20;92.00;;;;;;5016285;28;20183;-68
2023/05/31 00:42:33;;;;;;;5.88;4.20;;;16.20;92.10;;;;;;5016738;28;20245;-68
2023/05/31 00:45:03;;;;;;;5.75;4.10;;;16.20;92.40;;;;;;5016304;28;20198;-68
2023/05/31 00:47:29;;;;;;;6.20;4.07;;;16.10;92.60;;;;;;5016002;28;20189;-68
2023/05/31 00:49:56;;;;;;;5.75;3.92;;;16.10;92.80;;;;;;5016163;28;20250;-69
2023/05/31 00:52:22;;;;;;;6.20;3.60;;;16.10;92.80;;;;;;5015335;28;20182;-68
2023/05/31 00:54:51;;;;;;;4.90;3.90;;;16.10;92.80;;;;;;5013668;28;20226;-68
2023/05/31 00:57:17;;;;;;;4.63;3.80;;;16.10;92.90;;;;;;5005846;28;20337;-68
2023/05/31 00:59:43;;;;;;;4.68;3.42;;;16.10;93.00;;;;;;5015230;28;20179;-68
2023/05/31 01:02:12;;;;;;;4.93;3.25;;;16.00;93.20;;;;;;5016517;28;20195;-68
2023/05/31 01:04:40;;;;;;;4.50;3.45;;;16.00;93.30;;;;;;5012133;28;20363;-68
2023/05/31 01:07:09;;;;;;;6.72;3.75;;;16.00;93.60;;;;;;5019080;28;20174;-68
2023/05/31 01:09:35;;;;;;;5.60;3.85;;;15.90;93.50;;;;;;5016859;28;20182;-68
2023/05/31 01:12:15;;;;;;;5.00;3.28;;;15.90;93.70;;;;;;5016922;28;20206;-67
2023/05/31 01:15:02;;;;;;;6.80;4.22;;;15.90;94.50;;;;;;5030355;28;20201;-68
2023/05/31 01:17:50;;;;;;;6.18;4.43;;;15.90;95.50;;;;;;5032330;28;20183;-68
2023/05/31 01:20:21;;;;;;;6.00;4.35;;;15.80;95.20;;;;;;5022904;28;20216;-68
2023/05/31 01:22:50;;;;;;;6.72;4.55;;;15.80;94.30;;;;;;5016636;28;20174;-67
2023/05/31 01:25:25;;;;;;;5.03;4.05;;;15.70;94.30;;;;;;5015897;28;20179;-68
2023/05/31 01:27:53;;;;;;;6.35;3.95;;;15.70;94.50;;;;;;5010811;28;20198;-68
2023/05/31 01:30:21;;;;;;;4.45;3.40;;;15.70;94.80;;;;;;5009988;28;20246;-69
2023/05/31 01:32:52;;;;;;;6.25;3.80;;;15.60;95.20;;;;;;5018502;28;20206;-68
2023/05/31 01:35:18;;;;;;;6.43;3.53;;;15.60;95.50;;;;;;5015594;28;20202;-68
2023/05/31 01:37:45;;;;;;;5.18;3.45;;;15.60;95.20;;;;;;5016561;28;20190;-68
2023/05/31 01:40:15;;;;;;;4.95;3.67;;;15.60;95.30;;;;;;5016454;28;20211;-68
2023/05/31 01:42:43;;;;;;;4.95;3.40;;;15.50;95.60;;;;;;5016025;28;20175;-69
2023/05/31 01:45:13;;;;;;;6.32;3.58;;;15.50;95.60;;;;;;5015355;28;20214;-67
2023/05/31 01:47:40;;;;;;;5.57;3.60;;;15.50;95.90;;;;;;5032766;28;20178;-68
2023/05/31 01:50:11;;;;;;;8.48;3.83;;;15.40;95.90;;;;;;5015799;28;20240;-68
2023/05/31 01:52:39;;;;;;;6.10;4.38;;;15.40;96.40;;;;;;5012379;28;20187;-68
2023/05/31 01:55:10;;;;;;;4.15;3.50;;;15.40;96.10;;;;;;5014873;28;20203;-68
2023/05/31 01:57:42;;;;;;;5.95;3.70;;;15.30;96.20;;;;;;5015765;28;20171;-67
2023/05/31 02:00:12;;;;;;;4.97;3.45;;;15.30;96.70;;;;;;5011285;28;20199;-68
2023/05/31 02:02:41;;;;;;;5.00;3.75;;;15.30;96.60;;;;;;5012285;28;20193;-68
2023/05/31 02:05:08;;;;;;;5.32;4.15;;;15.30;97.10;;;;;;5007778;28;20176;-68
2023/05/31 02:07:37;;;;;;;5.60;3.78;;;15.20;97.00;;;;;;5029624;28;20207;-68
2023/05/31 02:10:03;;;;;;;5.72;3.38;;;15.20;97.40;;;;;;5015144;28;20218;-68
2023/05/31 02:12:29;;;;;;;4.45;3.42;;;15.20;97.10;;;;;;5014764;28;20190;-68
2023/05/31 02:14:54;;;;;;;4.57;3.28;;;15.10;97.30;;;;;;5015660;28;20272;-68
2023/05/31 02:17:23;;;;;;;6.20;3.90;;;15.10;97.40;;;;;;5023407;28;20181;-68
2023/05/31 02:19:52;;;;;;;4.85;3.53;;;15.10;97.70;;;;;;5018419;28;20262;-67
2023/05/31 02:22:23;;;;;;;4.75;3.60;;;15.00;98.30;;;;;;5009164;28;20187;-68
2023/05/31 02:24:49;;;;;;;5.05;3.30;;;15.00;98.00;;;;;;5015077;28;20187;-68
2023/05/31 02:27:15;;;;;;;5.47;3.58;;;15.00;98.00;;;;;;5013092;28;20306;-67
2023/05/31 02:29:40;;;;;;;5.07;3.35;;;15.00;98.10;;;;;;5020250;28;20222;-68
2023/05/31 02:32:06;;;;;;;4.28;3.28;;;14.90;98.30;;;;;;5016210;28;20241;-68
2023/05/31 02:34:33;;;;;;;4.70;3.22;;;14.90;98.40;;;;;;5013733;28;20203;-67
2023/05/31 02:37:02;;;;;;;4.10;3.17;;;14.90;98.60;;;;;;5013762;28;20182;-68
2023/05/31 02:39:28;;;;;;;5.03;3.20;;;14.80;98.80;;;;;;5013794;28;20182;-68
2023/05/31 02:41:58;;;;;;;6.05;3.42;;;14.80;98.90;;;;;;5014549;28;20197;-68
2023/05/31 02:44:24;;;;;;;5.20;3.33;;;14.80;99.40;;;;;;5012112;28;20187;-68
2023/05/31 02:46:52;;;;;;;4.78;3.28;;;14.80;99.10;;;;;;5031267;28;20229;-68
2023/05/31 02:49:17;;;;;;;4.88;3.35;;;14.80;99.20;;;;;;5013704;28;20218;-68
2023/05/31 02:51:43;;;;;;;6.20;3.50;;;14.80;99.30;;;;;;5015827;28;20236;-68
2023/05/31 02:54:09;;;;;;;5.97;3.78;;;14.80;99.50;;;;;;5014740;28;20289;-68
2023/05/31 02:56:35;;;;;;;4.57;3.30;;;14.70;99.60;;;;;;5013292;28;20217;-68
2023/05/31 02:59:00;;;;;;;5.05;3.42;;;14.70;99.90;;;;;;5012862;28;20183;-67
2023/05/31 03:01:28;;;;;;;5.75;3.35;;;14.70;99.90;;;;;;5014009;28;20246;-68
2023/05/31 03:03:54;;;;;;;4.07;3.28;;;14.80;99.90;;;;;;5012535;28;20202;-67
2023/05/31 03:06:20;;;;;;;5.50;3.45;;;14.60;99.90;;;;;;5029041;28;20194;-67
2023/05/31 03:08:45;;;;;;;4.45;3.65;;;14.60;99.90;;;;;;5014256;28;20178;-67
2023/05/31 03:11:11;;;;;;;5.20;3.63;;;14.60;99.90;;;;;;5013280;28;20206;-68
2023/05/31 03:13:37;;;;;;;4.72;3.80;;;14.60;99.90;;;;;;5011709;28;20199;-67
2023/05/31 03:16:03;;;;;;;4.80;3.50;;;14.50;99.90;;;;;;5013011;28;20201;-67
2023/05/31 03:18:30;;;;;;;4.38;3.03;;;14.50;99.90;;;;;;5012987;28;20205;-67
2023/05/31 03:20:56;;;;;;;4.25;3.40;;;14.40;99.90;;;;;;5012711;28;20197;-67
2023/05/31 03:23:22;;;;;;;4.20;3.38;;;14.50;99.90;;;;;;5012855;28;20190;-67
2023/05/31 03:25:47;;;;;;;4.72;3.25;;;14.40;99.90;;;;;;5013834;28;20213;-67
2023/05/31 03:28:15;;;;;;;5.60;3.20;;;14.40;99.90;;;;;;5013741;28;20272;-67
2023/05/31 03:30:41;;;;;;;4.47;3.03;;;14.40;99.90;;;;;;5013516;28;20170;-67
2023/05/31 03:33:10;;;;;;;4.43;3.63;;;14.40;99.90;;;;;;5012732;28;20195;-68
2023/05/31 03:35:35;;;;;;;6.07;3.20;;;14.30;99.90;;;;;;5013645;28;20179;-67
2023/05/31 03:38:06;;;;;;;4.72;3.22;;;14.30;99.90;;;;;;5013916;28;20182;-67
2023/05/31 03:40:31;;;;;;;4.30;2.90;;;14.30;99.90;;;;;;5012713;28;20269;-67
2023/05/31 03:42:57;;;;;;;6.88;3.90;;;14.30;99.90;;;;;;5014186;28;20175;-66
2023/05/31 03:45:25;;;;;;;4.15;3.15;;;14.30;99.90;;;;;;5013619;28;20178;-68
2023/05/31 03:47:50;;;;;;;5.40;3.35;;;14.30;99.90;;;;;;5032246;28;20190;-67
2023/05/31 03:50:19;;;;;;;4.10;3.22;;;14.20;99.90;;;;;;5012611;28;20193;-67
2023/05/31 03:52:44;;;;;;;5.55;3.67;;;14.20;99.90;;;;;;5014728;28;20344;-67
2023/05/31 03:55:10;;;;;;;4.63;3.50;;;14.30;99.90;;;;;;5011851;28;20293;-67
2023/05/31 03:57:36;;;;;;;4.60;3.17;;;14.20;99.90;;;;;;5011997;28;20182;-67
2023/05/31 04:00:04;;;;;;;5.10;3.53;;;14.30;99.90;;;;;;5013762;28;20260;-67
2023/05/31 04:02:32;;;;;;;4.45;3.58;;;14.30;99.90;;;;;;5012330;28;20210;-67
2023/05/31 04:04:59;;;;;;;4.45;3.63;;;14.30;99.90;;;;;;5010032;28;20265;-67
2023/05/31 04:07:25;;;;;;;4.90;3.03;;;14.20;99.90;;;;;;5013604;28;20183;-67
2023/05/31 04:09:53;;;;;;;5.15;3.55;;;14.30;99.90;;;;;;5013297;28;20182;-67
2023/05/31 04:12:19;;;;;;;5.45;3.88;;;14.30;99.90;;;;;;5015831;28;20202;-67
2023/05/31 04:14:44;;;;;;;13.07;9.82;;;14.30;99.90;;;;;;5014235;28;20212;-67
2023/05/31 04:17:12;;;;;;;6.88;5.40;;;14.30;99.90;;;;;;5016300;28;20240;-67
2023/05/31 04:19:38;;;;;;;5.85;4.72;;;14.30;99.90;;;;;;5019473;28;20213;-67
2023/05/31 04:22:06;;;;;;;6.10;4.38;;;14.30;99.90;;;;;;5016500;28;20265;-67
2023/05/31 04:24:32;;;;;;;6.32;4.32;;;14.40;99.90;;;;;;5015543;28;20179;-67
2023/05/31 04:27:02;;;;;;;4.60;3.67;;;14.40;99.90;;;;;;5017497;28;20215;-67
2023/05/31 04:29:30;;;;;;;4.78;3.83;;;14.40;99.90;;;;;;5015835;28;20205;-67
2023/05/31 04:31:56;;;;;;;7.68;4.10;;;14.40;99.90;;;;;;5015839;28;20219;-69
2023/05/31 04:34:26;;;;;;;5.15;4.00;;;14.50;99.90;;;;;;5015891;28;20329;-68
2023/05/31 04:36:56;;;;;;;5.55;4.00;;;14.40;99.90;;;;;;5016837;28;20202;-68
2023/05/31 04:39:22;;;;;;;5.90;3.97;;;14.50;99.90;;;;;;5017299;28;20244;-68
2023/05/31 04:41:48;;;;;;;5.97;3.90;;;14.60;99.90;;;;;;5033344;28;20256;-68
2023/05/31 04:44:14;;;;;;;6.57;4.13;;;14.50;99.90;;;;;;5015527;28;20260;-68
2023/05/31 04:46:42;;;;;;;6.32;3.85;;;14.60;99.90;;;;;;5014312;28;20229;-68
2023/05/31 04:49:11;;;;;;;5.82;3.50;;;14.60;99.90;;;;;;5030773;28;20183;-68
2023/05/31 04:51:39;;;;;;;4.43;3.65;;;14.70;99.90;;;;;;5015690;28;20267;-68
2023/05/31 04:54:05;;;;;;;5.78;3.97;;;14.70;99.90;;;;;;5016129;28;20297;-67
2023/05/31 04:56:31;;;;;;;5.55;3.60;;;14.70;99.90;;;;;;5013035;28;20186;-67
2023/05/31 04:58:59;;;;;;;5.57;3.78;;;14.80;99.90;;;;;;5016055;28;20418;-67
2023/05/31 05:01:26;;;;;;;6.05;3.80;;;14.80;99.90;;;;;;5149735;22;20226;-67
2023/05/31 05:03:52;;;;;;;5.63;3.95;;;14.90;99.90;;;;;;5030569;28;20206;-67
2023/05/31 05:06:18;;;;;;;4.85;3.88;;;14.90;99.90;;;;;;5035677;28;20181;-67
2023/05/31 05:08:48;;;;;;;5.13;3.63;;;15.00;99.90;;;;;;5036347;28;20186;-67
2023/05/31 05:11:16;;;;;;;5.90;4.05;;;15.10;99.90;;;;;;5035235;28;20206;-68
2023/05/31 05:13:43;;;;;;;6.32;4.18;;;15.10;99.90;;;;;;5034657;28;20208;-66
2023/05/31 05:16:13;;;;;;;5.70;3.67;;;15.20;99.90;;;;;;5025417;28;20277;-67
2023/05/31 05:18:41;;;;;;;6.47;4.65;;;15.20;99.90;;;;;;5047152;28;20309;-68
2023/05/31 05:21:07;;;;;;;10.52;7.75;;;15.30;99.90;;;;;;5035089;28;20165;-70
2023/05/31 05:23:37;;;;;;;8.50;6.03;;;15.40;99.90;;;;;;5034555;28;20274;-70
2023/05/31 05:26:03;;;;;;;8.48;5.38;;;15.40;99.90;;;;;;5027634;28;20277;-70
2023/05/31 05:28:29;;;;;;;7.38;5.35;;;15.50;99.90;;;;;;5029536;28;20204;-70
2023/05/31 05:30:55;;;;;;;6.03;4.55;;;15.50;99.90;;;;;;5031988;28;20995;-70
2023/05/31 05:33:21;;;;;;;6.65;4.60;;;15.60;99.90;;;;;;5031349;28;20408;-70
2023/05/31 05:35:47;;;;;;;7.35;4.55;;;15.70;99.90;;;;;;5029465;28;20178;-70
2023/05/31 05:38:12;;;;;;;5.60;4.25;;;15.70;99.90;;;;;;5025334;28;20243;-69
2023/05/31 05:40:40;;;;;;;5.07;3.80;;;15.80;99.90;;;;;;5030264;28;20191;-71
2023/05/31 05:43:08;;;;;;;3.78;3.38;;;15.90;99.90;;;;;;5033868;28;20222;-67
2023/05/31 05:45:34;;;;;;;3.95;3.30;;;15.90;99.90;;;;;;5034887;28;20193;-66
2023/05/31 05:48:00;;;;;;;5.30;3.45;;;16.00;99.90;;;;;;5032724;28;20174;-66
2023/05/31 05:50:26;;;;;;;4.30;2.90;;;16.00;99.90;;;;;;5016832;28;20250;-67
2023/05/31 05:52:52;;;;;;;4.00;2.92;;;16.10;99.90;;;;;;5045648;28;20190;-67
2023/05/31 05:55:19;;;;;;;3.80;2.67;;;16.20;99.90;;;;;;5036238;28;20204;-67
2023/05/31 05:57:45;;;;;;;5.07;3.08;;;16.20;99.90;;;;;;5024209;28;20178;-66
2023/05/31 06:00:11;;;;;;;5.28;3.00;;;16.30;99.90;;;;;;5031834;28;20269;-66
2023/05/31 06:02:38;;;;;;;3.80;2.70;;;16.30;99.90;;;;;;5030382;28;20204;-65
2023/05/31 06:05:04;;;;;;;5.22;2.63;;;16.40;99.90;;;;;;5043262;28;20194;-64
2023/05/31 06:07:32;;;;;;;8.80;3.80;;;16.40;99.90;;;;;;5021231;28;20187;-66
2023/05/31 06:09:59;;;;;;;6.97;4.13;;;16.50;99.90;;;;;;5024140;28;20170;-65
2023/05/31 06:12:27;;;;;;;4.30;3.40;;;16.50;99.90;;;;;;5032458;28;20183;-66
2023/05/31 06:14:55;;;;;;;4.50;3.03;;;16.60;99.90;;;;;;5033086;28;20194;-65
2023/05/31 06:17:20;;;;;;;4.43;2.95;;;16.60;99.90;;;;;;5035645;28;20201;-66
2023/05/31 06:19:46;;;;;;;4.72;3.03;;;16.70;99.90;;;;;;5031089;28;20178;-65
2023/05/31 06:22:12;;;;;;;5.35;3.05;;;16.80;99.90;;;;;;5025469;28;20174;-66
2023/05/31 06:24:42;;;;;;;4.15;3.03;;;16.80;99.90;;;;;;5034967;28;20206;-66
2023/05/31 06:27:12;;;;;;;6.68;3.13;;;16.80;99.90;;;;;;5034629;28;20187;-64
2023/05/31 06:29:37;;;;;;;4.20;2.90;;;16.90;99.90;;;;;;5044664;28;20265;-66
2023/05/31 06:32:03;;;;;;;3.90;2.83;;;16.90;99.90;;;;;;5031511;28;20293;-64
2023/05/31 06:34:31;;;;;;;2.45;2.22;;;17.00;99.90;;;;;;5015142;28;20203;-66
2023/05/31 06:37:00;;;;;;;3.88;2.70;;;17.00;99.90;;;;;;5041817;28;20174;-66
2023/05/31 06:39:26;;;;;;;3.80;2.80;;;17.10;99.90;;;;;;5035455;28;20276;-66
2023/05/31 06:41:51;;;;;;;5.10;2.60;;;17.10;99.90;;;;;;5033199;28;20220;-64
2023/05/31 06:44:19;;;;;;;4.05;2.65;;;17.20;99.90;;;;;;5031857;28;20182;-66
2023/05/31 06:46:45;;;;;;;3.92;2.72;;;17.20;99.90;;;;;;5019512;28;20202;-66
2023/05/31 06:49:15;;;;;;;3.60;2.58;;;17.30;99.90;;;;;;5031989;28;20174;-65
2023/05/31 06:51:41;;;;;;;4.28;2.63;;;17.30;99.90;;;;;;5035227;28;20174;-66
2023/05/31 06:54:07;;;;;;;5.07;2.97;;;17.40;99.90;;;;;;5030293;28;20270;-67
2023/05/31 06:56:33;;;;;;;5.32;3.22;;;17.40;99.90;;;;;;5035762;28;20214;-67
2023/05/31 06:58:58;;;;;;;7.55;5.80;;;17.50;99.90;;;;;;5030618;28;20214;-67
2023/05/31 07:01:25;;;;;;;6.05;3.60;;;17.50;99.90;;;;;;5023555;28;20209;-67
2023/05/31 07:03:50;;;;;;;5.78;3.08;;;17.50;99.90;;;;;;5032253;28;20185;-67
2023/05/31 07:06:18;;;;;;;4.00;3.00;;;17.60;99.90;;;;;;5018247;28;20181;-65
2023/05/31 07:08:45;;;;;;;5.57;3.17;;;17.70;99.90;;;;;;5024145;28;20206;-65
2023/05/31 07:11:12;;;;;;;4.00;2.60;;;17.70;99.90;;;;;;5035308;28;20170;-61
2023/05/31 07:13:40;;;;;;;4.80;2.90;;;17.80;99.90;;;;;;5029947;28;20212;-66
2023/05/31 07:16:10;;;;;;;4.68;2.88;;;17.80;99.90;;;;;;5031325;28;20174;-66
2023/05/31 07:18:36;;;;;;;3.47;2.65;;;17.90;99.90;;;;;;5034272;28;20247;-66
2023/05/31 07:21:01;;;;;;;4.95;2.65;;;17.90;99.90;;;;;;5029417;28;20190;-62
2023/05/31 07:23:27;;;;;;;3.78;2.78;;;18.00;99.90;;;;;;5027260;28;20177;-66
2023/05/31 07:25:53;;;;;;;3.90;2.83;;;18.10;99.90;;;;;;5034464;28;20174;-66
2023/05/31 07:28:18;;;;;;;5.10;3.03;;;18.10;99.90;;;;;;5026989;28;20178;-65
2023/05/31 07:30:44;;;;;;;3.50;2.50;;;18.20;99.90;;;;;;5034774;28;20214;-64
2023/05/31 07:33:12;;;;;;;4.15;2.55;;;18.30;99.90;;;;;;5050783;28;20170;-67
2023/05/31 07:35:41;;;;;;;4.07;2.20;;;18.30;99.90;;;;;;5034805;28;20213;-64
2023/05/31 07:38:07;;;;;;;5.75;2.35;;;18.40;99.90;;;;;;5027807;28;20170;-66
2023/05/31 07:40:32;;;;;;;3.28;2.22;;;18.50;99.90;;;;;;5031343;28;20169;-66
2023/05/31 07:43:00;;;;;;;4.55;2.40;;;18.60;99.90;;;;;;5031516;28;20206;-66
2023/05/31 07:45:26;;;;;;;3.13;2.30;;;18.60;99.90;;;;;;5025569;28;20178;-65
2023/05/31 07:47:55;;;;;;;5.07;2.83;;;18.70;99.90;;;;;;5034403;28;20188;-66
2023/05/31 07:50:20;;;;;;;4.50;2.20;;;18.80;99.90;;;;;;5020338;28;20280;-66
2023/05/31 07:52:49;;;;;;;3.72;2.15;;;18.90;99.90;;;;;;5016259;28;20186;-66
2023/05/31 07:55:16;;;;;;;2.55;2.30;;;19.00;99.90;;;;;;5046275;28;20205;-66
2023/05/31 07:57:41;;;;;;;4.15;2.50;;;19.10;99.90;;;;;;5032169;28;20253;-65
2023/05/31 08:00:08;;;;;;;3.63;2.20;;;19.10;99.90;;;;;;5033945;28;20174;-66
2023/05/31 08:02:34;;;;;;;3.38;2.00;;;19.20;99.90;;;;;;5032164;28;20225;-67
2023/05/31 08:05:05;;;;;;;5.13;2.40;;;19.30;99.90;;;;;;5033574;28;20233;-66
2023/05/31 08:07:31;;;;;;;4.80;2.90;;;19.40;99.90;;;;;;5034585;28;20216;-66
2023/05/31 08:09:56;;;;;;;3.05;2.10;;;19.50;99.90;;;;;;5031974;28;20209;-66
2023/05/31 08:12:22;;;;;;;4.20;2.75;;;19.50;99.90;;;;;;5049167;28;20205;-64
2023/05/31 08:14:47;;;;;;;3.55;2.20;;;19.60;99.90;;;;;;5033788;28;20205;-66
2023/05/31 08:17:13;;;;;;;3.25;2.20;;;19.70;99.90;;;;;;5033928;28;20237;-65
2023/05/31 08:19:39;;;;;;;3.97;1.90;;;19.80;99.90;;;;;;5032523;28;20264;-64
2023/05/31 08:22:05;;;;;;;2.80;1.98;;;19.90;99.90;;;;;;5023228;28;20269;-66
2023/05/31 08:24:30;;;;;;;2.55;1.85;;;20.00;99.90;;;;;;5028348;28;20194;-66
2023/05/31 08:26:58;;;;;;;4.07;2.20;;;20.00;99.90;;;;;;5030565;28;20186;-66
2023/05/31 08:29:23;;;;;;;2.83;2.08;;;20.20;99.90;;;;;;5030543;28;20183;-66
2023/05/31 08:31:49;;;;;;;2.58;1.70;;;20.30;99.90;;;;;;5032432;28;20332;-66
2023/05/31 08:34:19;;;;;;;2.95;1.88;;;20.30;99.90;;;;;;5032123;28;20296;-66
2023/05/31 08:36:47;;;;;;;4.93;2.08;;;20.40;99.90;;;;;;5030341;28;20175;-66
2023/05/31 08:39:13;;;;;;;3.33;1.90;;;20.50;99.90;;;;;;5020034;28;20182;-67
2023/05/31 08:41:49;;;;;;;2.85;1.92;;;20.60;99.90;;;;;;5016415;28;20177;-66
2023/05/31 08:44:18;;;;;;;2.60;1.63;;;20.70;99.90;;;;;;5037500;28;20281;-66
2023/05/31 08:46:46;;;;;;;4.13;1.88;;;20.80;99.90;;;;;;5032022;28;20179;-66
2023/05/31 08:49:15;;;;;;;2.15;1.52;;;20.80;99.90;;;;;;5015115;28;20304;-67
2023/05/31 08:51:43;;;;;;;3.13;1.92;;;20.90;99.90;;;;;;5039237;28;20189;-66
2023/05/31 08:54:10;;;;;;;3.50;1.80;;;21.00;99.60;;;;;;5034035;28;20320;-66
2023/05/31 08:56:40;;;;;;;3.65;1.65;;;21.10;99.40;;;;;;5029946;28;20243;-68
2023/05/31 08:59:11;;;;;;;3.25;1.77;;;21.20;98.90;;;;;;5034817;28;20174;-63
2023/05/31 09:01:38;;;;;;;2.30;1.73;;;21.30;98.20;;;;;;5037802;28;20197;-66
2023/05/31 09:04:07;;;;;;;4.45;1.77;;;21.40;98.70;;;;;;5034548;28;20244;-65
2023/05/31 09:06:34;;;;;;;1.85;1.52;;;21.50;98.50;;;;;;5019348;28;20221;-66
2023/05/31 09:09:00;;;;;;;2.80;1.52;;;21.60;98.20;;;;;;5036806;28;20293;-66
2023/05/31 09:11:28;;;;;;;3.10;1.40;;;21.70;98.10;;;;;;5018082;28;20185;-67
2023/05/31 09:13:54;;;;;;;2.47;1.38;;;21.80;98.00;;;;;;5029015;28;20193;-65
2023/05/31 09:16:22;;;;;;;1.95;1.60;;;21.90;97.60;;;;;;5054027;28;20209;-64
2023/05/31 09:18:50;;;;;;;3.00;1.70;;;22.00;97.30;;;;;;5025931;28;20277;-65
2023/05/31 09:21:15;;;;;;;2.95;1.73;;;22.10;96.90;;;;;;5029094;28;20182;-65
2023/05/31 09:23:53;;;;;;;6.57;1.80;;;22.20;96.30;;;;;;5037498;28;20217;-66
2023/05/31 09:26:20;;;;;;;3.22;1.80;;;22.30;94.40;;;;;;5033667;28;20213;-67
2023/05/31 09:28:51;;;;;;;2.35;1.40;;;22.40;95.10;;;;;;5037271;28;20192;-66
2023/05/31 09:31:17;;;;;;;3.25;1.70;;;22.60;93.70;;;;;;5039054;28;20201;-66
2023/05/31 09:33:45;;;;;;;2.83;1.42;;;22.60;94.30;;;;;;5036243;28;20201;-67
2023/05/31 09:36:14;;;;;;;1.83;1.52;;;22.80;94.10;;;;;;5036467;28;20217;-66
2023/05/31 09:38:42;;;;;;;3.30;1.48;;;22.80;93.80;;;;;;5035911;28;20205;-66
2023/05/31 09:41:27;;;;;;;2.00;1.30;;;23.00;93.70;;;;;;5034182;28;20232;-67
2023/05/31 09:43:55;;;;;;;3.20;1.60;;;23.10;92.00;;;;;;5017319;28;20183;-66
2023/05/31 09:46:21;;;;;;;3.67;1.60;;;23.20;93.40;;;;;;5046545;28;20178;-69
2023/05/31 09:49:04;;;;;;;3.40;1.80;;;23.30;93.10;;;;;;5035093;28;20240;-65
2023/05/31 09:51:32;;;;;;;3.35;1.42;;;23.40;90.60;;;;;;5025961;28;20205;-65
2023/05/31 09:54:06;;;;;;;2.38;1.35;;;23.50;91.80;;;;;;5034388;28;20197;-68
2023/05/31 09:56:37;;;;;;;3.85;2.10;;;23.60;90.20;;;;;;5037138;28;20161;-65
2023/05/31 09:59:03;;;;;;;1.83;1.50;;;23.70;88.20;;;;;;5052176;28;20391;-66
2023/05/31 10:01:32;;;;;;;2.47;1.50;;;23.90;89.90;;;;;;5033325;28;20202;-66
2023/05/31 10:03:59;;;;;;;1.77;1.63;;;23.90;89.20;;;;;;5033549;28;20205;-68
2023/05/31 10:06:25;;;;;;;2.05;1.42;;;24.00;87.00;;;;;;5026148;28;20225;-68
2023/05/31 10:08:51;;;;;;;4.43;1.50;;;24.10;87.70;;;;;;5036234;28;20181;-67
2023/05/31 10:11:34;;;;;;;3.15;1.50;;;24.20;87.60;;;;;;5018640;28;20198;-65
2023/05/31 10:14:02;;;;;;;2.75;1.60;;;24.30;84.50;;;;;;5048197;28;20228;-66
2023/05/31 10:16:35;;;;;;;5.78;1.60;;;24.30;83.80;;;;;;5033173;28;20205;-67
2023/05/31 10:19:09;;;;;;;3.13;1.45;;;24.40;83.70;;;;;;5044750;28;20185;-67
2023/05/31 10:21:41;;;;;;;2.22;1.60;;;24.50;82.30;;;;;;5036432;28;20217;-65
2023/05/31 10:24:16;;;;;;;2.40;1.70;;;24.50;82.90;;;;;;5035641;28;20205;-67
2023/05/31 10:26:57;;;;;;;3.40;1.42;;;24.60;81.20;;;;;;5034476;28;20182;-66
2023/05/31 10:29:43;;;;;;;2.70;1.40;;;24.70;80.60;;;;;;5017390;28;20183;-63
2023/05/31 10:32:20;;;;;;;2.15;1.50;;;24.80;81.30;;;;;;5017300;28;20208;-66
2023/05/31 10:34:47;;;;;;;2.20;1.50;;;25.00;80.20;;;;;;5044441;28;20248;-67
2023/05/31 10:37:13;;;;;;;3.00;1.67;;;25.20;82.10;;;;;;5021919;28;20174;-67
2023/05/31 10:39:49;;;;;;;2.45;1.70;;;25.50;82.60;;;;;;5035906;28;20261;-66
2023/05/31 10:42:23;;;;;;;3.45;1.50;;;25.70;80.40;;;;;;5019949;28;20202;-68
2023/05/31 10:45:11;;;;;;;3.85;1.60;;;26.00;80.50;;;;;;5023192;28;20188;-67
2023/05/31 10:47:52;;;;;;;4.05;1.60;;;26.30;80.50;;;;;;5033167;28;20174;-67
2023/05/31 10:50:20;;;;;;;3.10;1.50;;;26.60;80.20;;;;;;5035812;28;20178;-67
2023/05/31 10:52:52;;;;;;;2.30;1.50;;;26.80;80.50;;;;;;5016532;28;20194;-65
2023/05/31 10:55:22;;;;;;;2.92;1.60;;;27.00;77.80;;;;;;5028173;28;20202;-67
2023/05/31 10:57:55;;;;;;;1.73;1.30;;;27.20;80.40;;;;;;5032288;28;20240;-66
2023/05/31 11:00:24;;;;;;;3.03;1.45;;;27.40;77.90;;;;;;5046898;28;20235;-67
2023/05/31 11:02:56;;;;;;;2.80;1.70;;;27.50;75.70;;;;;;5031364;28;20318;-66
2023/05/31 11:05:24;;;;;;;1.83;1.40;;;27.70;75.20;;;;;;5032742;28;20247;-65
2023/05/31 11:07:51;;;;;;;2.63;1.30;;;27.80;76.30;;;;;;5032075;28;20261;-66
2023/05/31 11:10:34;;;;;;;2.10;1.50;;;27.90;75.10;;;;;;5028965;28;20216;-67
2023/05/31 11:13:07;;;;;;;3.00;1.50;;;28.00;66.90;;;;;;5032522;28;20190;-67
2023/05/31 11:15:44;;;;;;;2.33;1.60;;;28.10;70.50;;;;;;5018999;28;20213;-67
2023/05/31 11:18:22;;;;;;;2.53;1.33;;;28.20;69.00;;;;;;5029404;28;20221;-66
2023/05/31 11:20:48;;;;;;;2.55;1.63;;;28.30;70.40;;;;;;5040198;28;20184;-67
2023/05/31 11:23:24;;;;;;;2.70;1.50;;;28.40;71.90;;;;;;5032966;28;20177;-67
2023/05/31 11:26:10;;;;;;;2.95;1.50;;;28.50;67.10;;;;;;5034986;28;20181;-66
2023/05/31 11:28:56;;;;;;;2.55;1.30;;;28.60;66.70;;;;;;5026611;28;20192;-67
2023/05/31 11:31:49;;;;;;;3.03;1.45;;;28.80;65.90;;;;;;5018752;28;20205;-67
2023/05/31 11:34:33;;;;;;;2.22;1.50;;;28.80;64.80;;;;;;5014754;28;20201;-67
2023/05/31 11:37:05;;;;;;;1.52;1.13;;;29.00;64.20;;;;;;5028855;28;20174;-67
2023/05/31 11:39:31;;;;;;;1.60;1.10;;;29.10;64.80;;;;;;5034446;28;20193;-67
2023/05/31 11:41:58;;;;;;;2.17;1.40;;;29.10;67.10;;;;;;5024854;28;20187;-67
2023/05/31 11:44:30;;;;;;;1.38;1.20;;;29.30;66.20;;;;;;5031919;28;20185;-67
2023/05/31 11:47:03;;;;;;;4.82;1.60;;;29.40;61.50;;;;;;5024740;28;20181;-66
2023/05/31 11:49:30;;;;;;;2.70;1.48;;;29.50;62.80;;;;;;5029592;28;20186;-66
2023/05/31 11:51:56;;;;;;;2.10;1.40;;;29.50;62.10;;;;;;5027812;28;20204;-65
2023/05/31 11:54:30;;;;;;;2.88;1.60;;;29.60;62.60;;;;;;5025708;28;20213;-66
2023/05/31 11:57:02;;;;;;;2.05;1.20;;;29.70;60.30;;;;;;5016799;28;20267;-67
2023/05/31 11:59:32;;;;;;;3.53;1.55;;;29.80;59.80;;;;;;5015810;28;20256;-66
2023/05/31 12:02:02;;;;;;;3.00;1.50;;;29.90;59.50;;;;;;5032131;28;20291;-68
2023/05/31 12:04:39;;;;;;;1.67;1.27;;;29.90;58.80;;;;;;5024205;28;20178;-68
2023/05/31 12:07:06;;;;;;;2.83;1.75;;;30.00;57.40;;;;;;5021939;28;20305;-66
2023/05/31 12:09:34;;;;;;;2.33;1.40;;;30.10;59.40;;;;;;5031752;28;20201;-66
2023/05/31 12:12:02;;;;;;;2.10;1.30;;;30.10;58.30;;;;;;5031629;28;20173;-66
2023/05/31 12:14:29;;;;;;;2.40;1.40;;;30.20;57.60;;;;;;5035168;28;20201;-66
2023/05/31 12:16:55;;;;;;;2.40;1.60;;;30.20;57.90;;;;;;5026433;28;20173;-66
2023/05/31 12:19:25;;;;;;;2.65;1.40;;;30.20;57.70;;;;;;5031424;28;20177;-65
2023/05/31 12:21:50;;;;;;;1.67;1.38;;;30.30;57.60;;;;;;5030864;28;20231;-67
2023/05/31 12:24:19;;;;;;;2.05;1.40;;;30.40;57.70;;;;;;5027486;28;20181;-66
2023/05/31 12:26:48;;;;;;;2.88;1.30;;;30.50;57.30;;;;;;5034175;28;20180;-67
2023/05/31 12:29:20;;;;;;;1.85;1.30;;;30.60;55.80;;;;;;5025668;28;20210;-66
2023/05/31 12:31:45;;;;;;;1.83;1.33;;;30.70;55.70;;;;;;5014835;28;20166;-66
2023/05/31 12:34:15;;;;;;;1.67;1.50;;;30.80;56.00;;;;;;5034434;28;20264;-66
2023/05/31 12:36:45;;;;;;;1.77;1.27;;;30.80;54.60;;;;;;5026039;28;20171;-65
2023/05/31 12:39:29;;;;;;;1.55;1.10;;;30.90;54.90;;;;;;5019609;28;20177;-64
2023/05/31 12:41:58;;;;;;;1.88;1.30;;;31.00;52.20;;;;;;5028106;28;20177;-65
2023/05/31 12:44:26;;;;;;;1.42;1.02;;;31.00;54.40;;;;;;5036997;28;20204;-65
2023/05/31 12:47:01;;;;;;;1.65;1.25;;;31.10;54.30;;;;;;5030906;28;20170;-66
2023/05/31 12:49:28;;;;;;;3.15;1.30;;;31.20;54.10;;;;;;5027591;28;20327;-66
2023/05/31 12:52:04;;;;;;;1.60;1.40;;;31.30;53.50;;;;;;5035468;28;20239;-65